createdAt,value
2019-02-26T00:01:50.737Z,7.50
2019-02-26T00:05:56.674Z,7.40
2019-02-26T00:10:00.058Z,7.40
2019-02-26T00:14:04.250Z,7.30
2019-02-26T00:18:11.357Z,7.10
2019-02-26T00:22:13.793Z,7.10
2019-02-26T00:26:18.469Z,7.10
2019-02-26T00:30:22.146Z,7.00
2019-02-26T00:34:25.142Z,6.90
2019-02-26T00:38:29.407Z,6.90
2019-02-26T00:42:34.243Z,6.90
2019-02-26T00:46:39.528Z,7.00
2019-02-26T00:50:42.411Z,6.80
2019-02-26T00:54:45.394Z,6.80
2019-02-26T00:58:50.300Z,6.70
2019-02-26T01:02:53.366Z,6.80
2019-02-26T01:06:57.292Z,6.70
2019-02-26T01:11:02.152Z,6.60
2019-02-26T01:15:11.491Z,6.70
2019-02-26T01:19:15.293Z,6.70
2019-02-26T01:23:21.601Z,6.70
2019-02-26T01:27:24.284Z,6.60
2019-02-26T01:31:29.092Z,6.70
2019-02-26T01:35:33.134Z,6.60
2019-02-26T01:39:38.338Z,6.50
2019-02-26T01:43:42.881Z,6.40
2019-02-26T01:47:48.244Z,6.40
2019-02-26T01:51:51.863Z,6.20
2019-02-26T01:55:55.674Z,6.20
2019-02-26T01:59:58.655Z,6.20
2019-02-26T02:04:01.642Z,6.20
2019-02-26T02:08:04.632Z,6.20
2019-02-26T02:12:08.802Z,6.40
2019-02-26T02:16:12.516Z,6.20
2019-02-26T02:20:18.489Z,6.00
2019-02-26T02:24:22.332Z,6.10
2019-02-26T02:28:26.335Z,6.10
2019-02-26T02:32:33.887Z,6.30
2019-02-26T02:36:35.264Z,6.30
2019-02-26T02:40:40.181Z,6.40
2019-02-26T02:44:46.763Z,6.50
2019-02-26T02:48:49.514Z,6.40
2019-02-26T02:52:53.496Z,6.40
2019-02-26T02:56:59.953Z,6.40
2019-02-26T03:01:02.433Z,6.20
2019-02-26T03:05:07.119Z,6.20
2019-02-26T03:09:14.483Z,6.20
2019-02-26T03:13:20.128Z,6.30
2019-02-26T03:17:22.103Z,6.30
2019-02-26T03:21:27.795Z,6.40
2019-02-26T03:25:29.999Z,6.40
2019-02-26T03:29:32.987Z,6.30
2019-02-26T03:33:36.180Z,6.30
2019-02-26T03:37:39.172Z,6.30
2019-02-26T03:41:46.065Z,6.20
2019-02-26T03:45:48.986Z,6.10
2019-02-26T03:49:52.030Z,6.10
2019-02-26T03:53:55.042Z,6.00
2019-02-26T03:58:01.404Z,5.80
2019-02-26T04:02:03.138Z,5.90
2019-02-26T04:06:09.166Z,5.80
2019-02-26T04:10:11.730Z,5.70
2019-02-26T04:14:15.362Z,5.60
2019-02-26T04:18:19.610Z,5.60
2019-02-26T04:22:26.174Z,5.60
2019-02-26T04:27:00.671Z,5.60
2019-02-26T04:31:10.700Z,5.50
2019-02-26T04:35:16.259Z,5.50
2019-02-26T04:39:41.747Z,5.50
2019-02-26T04:43:58.493Z,5.40
2019-02-26T04:48:05.103Z,5.30
2019-02-26T04:52:10.932Z,5.20
2019-02-26T04:56:15.063Z,5.20
2019-02-26T05:00:18.200Z,5.20
2019-02-26T05:04:21.196Z,5.10
2019-02-26T05:08:24.394Z,4.90
2019-02-26T05:12:30.308Z,5.00
2019-02-26T05:16:34.718Z,5.10
2019-02-26T05:20:39.292Z,5.00
2019-02-26T05:24:44.399Z,5.10
2019-02-26T05:28:49.047Z,4.90
2019-02-26T05:32:54.286Z,4.80
2019-02-26T05:36:59.648Z,4.80
2019-02-26T05:41:01.805Z,4.80
2019-02-26T05:45:09.152Z,4.50
2019-02-26T05:49:15.765Z,4.10
2019-02-26T05:53:16.306Z,4.20
2019-02-26T05:57:27.622Z,4.30
2019-02-26T06:01:25.859Z,4.30
2019-02-26T06:05:29.382Z,4.50
2019-02-26T06:09:33.811Z,4.60
2019-02-26T06:13:38.236Z,4.50
2019-02-26T06:17:45.251Z,4.40
2019-02-26T06:21:49.159Z,4.40
2019-02-26T06:25:55.234Z,4.60
2019-02-26T06:29:58.158Z,4.60
2019-02-26T06:34:05.680Z,4.30
2019-02-26T06:38:08.978Z,4.50
2019-02-26T06:42:12.189Z,4.60
2019-02-26T06:46:18.410Z,4.80
2019-02-26T06:50:21.410Z,4.60
2019-02-26T06:54:26.302Z,4.70
2019-02-26T06:58:29.296Z,4.70
2019-02-26T07:02:32.290Z,4.70
2019-02-26T07:06:35.276Z,4.70
2019-02-26T07:10:38.275Z,4.70
2019-02-26T07:14:41.260Z,4.90
2019-02-26T07:18:44.261Z,5.20
2019-02-26T07:22:49.621Z,5.70
2019-02-26T07:26:52.154Z,5.60
2019-02-26T07:30:55.143Z,6.40
2019-02-26T07:34:58.255Z,7.00
2019-02-26T07:39:01.340Z,7.40
2019-02-26T07:43:06.969Z,8.30
2019-02-26T07:47:11.271Z,8.60
2019-02-26T07:51:14.306Z,9.40
2019-02-26T07:55:17.559Z,10.30
2019-02-26T07:59:27.451Z,10.20
2019-02-26T08:03:26.762Z,10.80
2019-02-26T08:07:30.814Z,11.40
2019-02-26T08:11:36.206Z,12.20
2019-02-26T08:15:39.903Z,13.00
2019-02-26T08:19:46.628Z,13.70
2019-02-26T08:23:48.831Z,14.20
2019-02-26T08:27:54.059Z,14.10
2019-02-26T08:31:59.616Z,14.40
2019-02-26T08:36:02.943Z,15.20
2019-02-26T08:40:09.487Z,15.50
2019-02-26T08:44:12.628Z,15.70
2019-02-26T08:48:17.805Z,15.90
2019-02-26T08:52:24.482Z,16.40
2019-02-26T08:56:28.302Z,17.60
2019-02-26T09:00:34.203Z,17.40
2019-02-26T09:04:38.376Z,17.40
2019-02-26T09:08:43.143Z,16.40
2019-02-26T09:12:48.658Z,16.80
2019-02-26T09:16:52.539Z,17.60
2019-02-26T09:20:57.082Z,18.20
2019-02-26T09:25:02.345Z,18.70
2019-02-26T09:29:04.992Z,17.60
2019-02-26T09:33:09.081Z,17.90
2019-02-26T09:37:12.886Z,18.00
2019-02-26T09:41:16.622Z,17.70
2019-02-26T09:45:28.616Z,17.50
2019-02-26T09:49:33.250Z,17.70
2019-02-26T09:53:36.331Z,17.30
2019-02-26T09:57:39.336Z,17.90
2019-02-26T10:01:42.829Z,18.40
2019-02-26T10:05:48.244Z,19.30
2019-02-26T10:09:50.970Z,20.00
2019-02-26T10:13:53.975Z,20.20
2019-02-26T10:18:00.887Z,20.50
2019-02-26T10:22:03.544Z,20.60
2019-02-26T10:26:08.409Z,20.70
2019-02-26T10:30:16.098Z,20.60
2019-02-26T10:34:20.876Z,20.90
2019-02-26T10:38:24.202Z,20.60
2019-02-26T10:42:28.691Z,20.60
2019-02-26T10:46:32.661Z,21.30
2019-02-26T10:50:40.377Z,22.10
2019-02-26T10:54:44.721Z,21.80
2019-02-26T10:58:48.087Z,21.50
2019-02-26T11:02:54.092Z,22.10
2019-02-26T11:06:55.999Z,22.70
2019-02-26T11:10:59.026Z,22.90
2019-02-26T11:15:04.849Z,22.90
2019-02-26T11:19:10.376Z,22.50
2019-02-26T11:23:16.097Z,22.80
2019-02-26T11:27:19.159Z,21.40
2019-02-26T11:31:25.331Z,21.40
2019-02-26T11:35:27.595Z,21.50
2019-02-26T11:54:26.276Z,21.90
2019-02-26T11:58:29.480Z,21.60
2019-02-26T12:02:34.398Z,21.80
2019-02-26T12:06:38.179Z,22.00
2019-02-26T12:10:41.189Z,21.90
2019-02-26T12:14:47.957Z,21.60
2019-02-26T12:18:49.140Z,22.10
2019-02-26T12:22:53.058Z,21.90
2019-02-26T12:26:57.056Z,22.30
2019-02-26T12:31:01.235Z,22.10
2019-02-26T12:35:08.597Z,22.50
2019-02-26T12:39:11.284Z,22.30
2019-02-26T12:43:16.346Z,22.30
2019-02-26T12:47:21.800Z,22.30
2019-02-26T12:51:26.285Z,22.30
2019-02-26T12:55:32.837Z,22.50
2019-02-26T12:59:35.502Z,22.20
2019-02-26T13:03:39.879Z,21.80
2019-02-26T13:07:43.506Z,21.50
2019-02-26T13:15:51.456Z,21.40
2019-02-26T13:19:58.921Z,20.80
2019-02-26T13:24:11.485Z,21.00
2019-02-26T13:28:04.283Z,20.70
2019-02-26T13:32:09.021Z,20.40
2019-02-26T13:36:13.725Z,20.80
2019-02-26T13:40:22.492Z,20.70
2019-02-26T13:44:25.675Z,21.00
2019-02-26T13:48:28.663Z,21.00
2019-02-26T13:52:31.675Z,21.20
2019-02-26T13:56:36.734Z,21.20
2019-02-26T14:00:40.053Z,21.20
2019-02-26T14:04:43.055Z,21.30
2019-02-26T14:08:46.097Z,21.40
2019-02-26T14:12:49.153Z,21.50
2019-02-26T14:16:52.169Z,21.50
2019-02-26T14:20:55.180Z,21.30
2019-02-26T14:24:58.180Z,21.30
2019-02-26T14:29:01.220Z,21.40
2019-02-26T14:33:04.695Z,21.10
2019-02-26T14:37:07.857Z,21.10
2019-02-26T14:41:10.874Z,20.80
2019-02-26T14:45:19.698Z,20.70
2019-02-26T14:49:22.767Z,21.00
2019-02-26T14:53:27.555Z,20.80
2019-02-26T14:57:31.299Z,21.10
2019-02-26T15:01:34.308Z,21.00
2019-02-26T15:05:37.469Z,20.90
2019-02-26T15:09:40.483Z,20.80
2019-02-26T15:13:43.488Z,20.60
2019-02-26T15:17:46.521Z,20.70
2019-02-26T15:21:49.525Z,20.50
2019-02-26T15:25:52.541Z,20.30
2019-02-26T15:29:55.571Z,20.30
2019-02-26T15:33:58.613Z,20.10
2019-02-26T15:38:01.610Z,20.00
2019-02-26T15:42:04.675Z,20.00
2019-02-26T15:46:07.689Z,19.90
2019-02-26T15:50:13.678Z,19.70
2019-02-26T15:54:16.734Z,19.70
2019-02-26T15:58:21.341Z,19.60
2019-02-26T16:02:25.978Z,19.80
2019-02-26T16:06:29.624Z,19.70
2019-02-26T16:10:32.830Z,19.60
2019-02-26T16:14:35.924Z,19.40
2019-02-26T16:18:39.435Z,19.30
2019-02-26T16:22:42.546Z,19.20
2019-02-26T16:26:45.624Z,19.20
2019-02-26T16:30:48.744Z,19.10
2019-02-26T16:34:52.507Z,18.90
2019-02-26T16:38:56.118Z,18.90
2019-02-26T16:42:59.130Z,18.70
2019-02-26T16:47:02.277Z,18.60
2019-02-26T16:51:05.280Z,18.40
2019-02-26T16:55:13.469Z,18.20
2019-02-26T16:59:16.461Z,18.10
2019-02-26T17:03:19.560Z,17.90
2019-02-26T17:07:22.606Z,17.70
2019-02-26T17:11:25.614Z,17.60
2019-02-26T17:15:33.056Z,17.30
2019-02-26T17:19:36.109Z,17.00
2019-02-26T17:23:39.183Z,16.60
2019-02-26T17:27:42.176Z,16.40
2019-02-26T17:31:45.177Z,16.10
2019-02-26T17:35:48.272Z,15.80
2019-02-26T17:39:51.285Z,15.70
2019-02-26T17:43:54.278Z,15.40
2019-02-26T17:47:59.420Z,15.20
2019-02-26T17:52:02.623Z,15.00
2019-02-26T17:56:05.689Z,14.90
2019-02-26T18:00:20.228Z,14.60
2019-02-26T18:04:23.563Z,14.60
2019-02-26T18:08:26.797Z,14.40
2019-02-26T18:12:29.807Z,14.20
2019-02-26T18:16:34.506Z,14.10
2019-02-26T18:20:37.619Z,14.00
2019-02-26T18:24:40.623Z,13.80
2019-02-26T18:28:47.415Z,13.50
2019-02-26T18:32:50.420Z,13.30
2019-02-26T18:36:53.687Z,13.20
2019-02-26T18:41:00.529Z,13.00
2019-02-26T18:45:01.885Z,12.90
2019-02-26T18:49:05.476Z,12.90
2019-02-26T18:53:08.520Z,12.90
2019-02-26T18:57:12.142Z,12.80
2019-02-26T19:01:16.313Z,12.60
2019-02-26T19:05:21.069Z,12.60
2019-02-26T19:09:24.457Z,12.50
2019-02-26T19:13:27.473Z,12.40
2019-02-26T19:17:30.511Z,12.20
2019-02-26T19:21:33.574Z,12.10
2019-02-26T19:25:36.647Z,11.90
2019-02-26T19:29:39.744Z,12.00
2019-02-26T19:33:42.900Z,11.90
2019-02-26T19:37:55.887Z,11.70
2019-02-26T19:41:59.549Z,11.50
2019-02-26T19:46:02.825Z,11.40
2019-02-26T19:50:11.860Z,11.30
2019-02-26T19:54:15.492Z,11.40
2019-02-26T19:58:18.609Z,11.40
2019-02-26T20:02:22.019Z,11.40
2019-02-26T20:06:26.863Z,11.40
2019-02-26T20:10:30.048Z,11.30
2019-02-26T20:14:33.069Z,11.10
2019-02-26T20:18:36.220Z,11.00
2019-02-26T20:22:39.241Z,10.90
2019-02-26T20:26:42.249Z,10.80
2019-02-26T20:30:45.315Z,10.70
2019-02-26T20:34:48.312Z,10.50
2019-02-26T20:38:51.375Z,10.40
2019-02-26T20:42:54.398Z,10.50
2019-02-26T20:46:58.063Z,10.40
2019-02-26T20:51:01.940Z,10.40
2019-02-26T20:55:19.174Z,10.40
2019-02-26T20:59:22.888Z,10.40
2019-02-26T21:03:27.080Z,10.50
2019-02-26T21:07:30.072Z,10.50
2019-02-26T21:11:33.108Z,10.50
2019-02-26T21:15:36.112Z,10.50
2019-02-26T21:19:39.120Z,10.30
2019-02-26T21:23:42.144Z,10.30
2019-02-26T21:27:45.201Z,10.20
2019-02-26T21:31:49.756Z,10.30
2019-02-26T21:35:54.326Z,10.20
2019-02-26T21:39:57.870Z,10.10
2019-02-26T21:44:00.873Z,9.90
2019-02-26T21:48:03.872Z,9.70
2019-02-26T21:52:08.935Z,9.50
2019-02-26T21:56:15.658Z,9.50
2019-02-26T22:00:21.229Z,9.40
2019-02-26T22:04:24.689Z,9.40
2019-02-26T22:08:27.755Z,9.50
2019-02-26T22:12:31.045Z,9.50
2019-02-26T22:16:34.048Z,9.50
2019-02-26T22:20:37.056Z,9.40
2019-02-26T22:24:40.741Z,9.20
2019-02-26T22:28:43.863Z,9.20
2019-02-26T22:32:46.877Z,9.10
2019-02-26T22:36:49.885Z,9.20
2019-02-26T22:40:52.897Z,9.20
2019-02-26T22:44:55.904Z,9.10
2019-02-26T22:48:58.931Z,8.90
2019-02-26T22:53:04.045Z,9.00
2019-02-26T22:57:06.839Z,9.00
2019-02-26T23:01:17.808Z,8.90
2019-02-26T23:05:25.433Z,8.70
2019-02-26T23:09:28.727Z,8.60
2019-02-26T23:13:32.602Z,8.50
2019-02-26T23:17:35.794Z,8.30
2019-02-26T23:21:39.660Z,8.30
2019-02-26T23:25:42.670Z,8.40
2019-02-26T23:29:45.700Z,8.50
2019-02-26T23:33:49.132Z,8.50
2019-02-26T23:37:53.254Z,8.50
2019-02-26T23:41:56.351Z,8.50
2019-02-26T23:45:59.357Z,8.40
2019-02-26T23:50:04.400Z,8.40
2019-02-26T23:54:07.976Z,8.40
2019-02-26T23:58:11.622Z,8.40
